aviador You're here:

SCCF Decoded Metar

CALAMA in CHILE
Report Time2017-08-22 09:00:00
UTC Time2017-08-22 09:12:42
Flight Rules vfr VFR
Wind150° at 20 kt
W.Decomp.*RWY 10: 11.8 kt HW 16.2 kt RCW
W.Rank150° ranks 20
Current wind is above 150° avg. (6.4)
Visibility9999 m
Phenomena:N/A
Clouds:N/A
Expected CloudBase > 11,200 ft AGL from Temp-Dew spread
CeilingNone
Temp04°C (ISA +4)
Dew Point-24°C (11% RH)
AAT-6.9°C
QNH1027 hPa
Density Alt7,612 ft
Elevation7,585 ft
Report Wrong Elevation
Raw Report
SCCF 220900Z 15020KT CAVOK 04/M24 Q1027=

Extra information for SCCF:More info

Metar Taf Metar & Taf Last 4 Metars F.Rules Stats Wind Profile Meteogram Temp Stats Airport Information Weather charts Add Link Nearby VenuesMetar ALERT Operation Metar Decoded Social comments